Flight Track Log - Related Links

Times and Time Zones

All times are in EDT time to prevent confusion due to time zone crossing. See the DAL268 flight status page for this flight to view local times or setup timezone preferences in your user account.

Time Position Orientation Groundspeed Altitude Reporting Facility
EDT Latitude Longitude Course Direction KTS MPH feet Rate Location/Type
Wed 00:03:42 40.6310 -73.7710 33° Northeast 172 198 100  Level FlightAware ADS-B
Wed 00:04:12 40.6490 -73.7510 40° Northeast 176 203 1,100 1,867 Climbing FlightAware ADS-B
Wed 00:04:27 40.6510 -73.7330 82° East 193 222 1,500 1,950 Climbing FlightAware ADS-B
Wed 00:04:52 40.6500 -73.7060 93° East 190 219 2,400 1,418 Climbing FlightAware ADS-B
Wed 00:05:22 40.6500 -73.6700 90° East 230 265 2,800 1,091 Climbing FlightAware ADS-B
Wed 00:05:47 40.6500 -73.6290 90° East 252 290 3,400 1,527 Climbing FlightAware ADS-B
Wed 00:06:17 40.6500 -73.5810 90° East 273 314 4,200 1,333 Climbing FlightAware ADS-B
Wed 00:06:32 40.6540 -73.5580 77° East 278 320 4,400 1,800 Climbing FlightAware ADS-B
Wed 00:06:47 40.6670 -73.5360 52° Northeast 276 318 5,100 2,550 Climbing FlightAware ADS-B
Wed 00:07:12 40.6930 -73.5150 31° Northeast 279 321 6,100 2,400 Climbing FlightAware ADS-B
Wed 00:07:42 40.7280 -73.4940 24° Northeast 286 329 7,300 2,600 Climbing FlightAware ADS-B
Wed 00:08:12 40.7670 -73.4720 23° Northeast 292 336 8,700 2,509 Climbing FlightAware ADS-B
Wed 00:08:37 40.7960 -73.4570 21° North 296 341 9,600 1,800 Climbing FlightAware ADS-B
Wed 00:09:22 40.8580 -73.4230 23° Northeast 331 381 10,800 1,412 Climbing FlightAware ADS-B
Wed 00:10:02 40.9190 -73.3890 23° Northeast 365 420 11,600 1,650 Climbing FlightAware ADS-B
Wed 00:10:42 40.9810 -73.3540 23° Northeast 377 434 13,000 2,189 Climbing FlightAware ADS-B
Wed 00:11:16 41.0411 -73.3205 23° Northeast 388 447 14,300 2,160 Climbing FlightAware ADS-B
Wed 00:11:57 41.1080 -73.2830 23° Northeast 397 457 15,700 1,926 Climbing FlightAware ADS-B
Wed 00:12:37 41.1720 -73.2350 29° Northeast 415 478 16,900 1,875 Climbing FlightAware ADS-B
Wed 00:13:17 41.2220 -73.1550 50° Northeast 424 488 18,200 1,835 Climbing FlightAware ADS-B
Wed 00:14:02 41.2750 -73.0800 47° Northeast 421 484 19,500 1,920 Climbing FlightAware ADS-B
Wed 00:14:57 41.3550 -72.9620 48° Northeast 432 497 21,400 1,473 Climbing FlightAware ADS-B
Wed 00:15:52 41.4220 -72.8580 49° Northeast 430 495 22,200 1,500 Climbing FlightAware ADS-B
Wed 00:16:17 41.4638 -72.7952 48° Northeast 447 514 23,400 1,271 Climbing FlightAware ADS-B
Wed 00:17:17 41.5400 -72.6770 49° Northeast 458 527 24,000 730 Climbing FlightAware ADS-B
Wed 00:18:12 41.6140 -72.5620 49° Northeast 474 545 24,800 1,137 Climbing FlightAware ADS-B
Wed 00:18:52 41.6690 -72.4470 57° Northeast 485 558 25,800 1,694 Climbing FlightAware ADS-B
Wed 00:19:37 41.7200 -72.3310 59° Northeast 483 556 27,200 1,500 Climbing FlightAware ADS-B
Wed 00:20:12 41.7560 -72.2520 59° Northeast 490 564 27,800 1,050 Climbing FlightAware ADS-B
Wed 00:20:57 41.8240 -72.1460 49° Northeast 500 575 28,600 1,067 Climbing FlightAware ADS-B
Wed 00:21:42 41.9030 -72.0320 47° Northeast 504 580 29,400 988 Climbing FlightAware ADS-B
Wed 00:22:22 41.9640 -71.9410 48° Northeast 508 585 30,000 988 Climbing FlightAware ADS-B
Wed 00:23:07 42.0370 -71.8300 48° Northeast 510 587 30,800 1,129 Climbing FlightAware ADS-B
Wed 00:23:47 42.1020 -71.7380 46° Northeast 510 587 31,600 988 Climbing FlightAware ADS-B
Wed 00:24:32 42.1720 -71.6350 47° Northeast 512 589 32,200 776 Climbing FlightAware ADS-B
Wed 00:25:12 42.2350 -71.5440 47° Northeast 515 593 32,700 600 Climbing FlightAware ADS-B
Wed 00:25:52 42.3020 -71.4450 48° Northeast 518 596 33,000 212 Climbing FlightAware ADS-B
Wed 00:26:37 42.3770 -71.3350 47° Northeast 519 597 33,000  Level FlightAware ADS-B
Wed 00:27:17 42.4430 -71.2370 48° Northeast 520 598 33,000  Level FlightAware ADS-B
Wed 00:27:57 42.5080 -71.1410 47° Northeast 521 600 33,000  Level FlightAware ADS-B
Wed 00:28:42 42.5780 -71.0370 48° Northeast 525 604 33,000  Level FlightAware ADS-B
Wed 00:29:22 42.6450 -70.9380 47° Northeast 528 608 33,000  Level FlightAware ADS-B
Wed 00:30:07 42.7200 -70.8250 48° Northeast 530 610 33,000  Level FlightAware ADS-B
Wed 00:30:47 42.7860 -70.7260 48° Northeast 531 611 33,000  Level FlightAware ADS-B
Wed 00:31:32 42.8600 -70.6150 48° Northeast 531 611 33,000  Level FlightAware ADS-B
Wed 00:32:12 42.9260 -70.5160 48° Northeast 531 611 33,000  Level FlightAware ADS-B
Wed 00:32:57 42.9980 -70.4060 48° Northeast 531 611 33,000  Level FlightAware ADS-B
Wed 00:33:37 43.0660 -70.3030 48° Northeast 532 612 33,000  Level FlightAware ADS-B
Wed 00:37:07 43.4120 -69.7720 48° Northeast 543 625 33,000  Level FlightAware ADS-B
Wed 00:38:22 43.5300 -69.5880 48° Northeast 540 621 33,000  Level FlightAware ADS-B
Wed 00:39:57 43.6860 -69.3430 49° Northeast 541 623 33,000  Level FlightAware ADS-B
Wed 00:40:47 43.7720 -69.2090 48° Northeast 542 624 33,000  Level FlightAware ADS-B
Wed 00:41:27 43.8280 -69.1190 49° Northeast 542 624 33,000  Level FlightAware ADS-B
Wed 00:42:17 43.8980 -69.0080 49° Northeast 542 624 33,000  Level FlightAware ADS-B
Wed 00:42:57 43.9540 -68.9180 49° Northeast 542 624 33,000  Level FlightAware ADS-B
Wed 00:43:32 44.0560 -68.7570 49° Northeast 551 634 33,000  Level FlightAware ADS-B
Wed 00:44:17 44.1280 -68.6430 49° Northeast 552 635 33,000  Level FlightAware ADS-B
Wed 00:45:02 44.2060 -68.5160 49° Northeast 553 636 33,000  Level FlightAware ADS-B
Wed 00:45:42 44.2710 -68.4110 49° Northeast 554 638 33,000  Level FlightAware ADS-B
Wed 00:46:27 44.3500 -68.2830 49° Northeast 555 639 33,000  Level FlightAware ADS-B
Wed 00:47:07 44.4170 -68.1750 49° Northeast 555 639 33,000  Level FlightAware ADS-B
Wed 00:47:52 44.4930 -68.0490 50° Northeast 556 640 33,000  Level FlightAware ADS-B
Wed 00:48:32 44.5570 -67.9450 49° Northeast 555 639 33,000  Level FlightAware ADS-B
Wed 00:49:12 44.6230 -67.8360 50° Northeast 555 639 33,000  Level FlightAware ADS-B
Wed 00:49:57 44.7010 -67.7070 50° Northeast 554 638 33,000  Level FlightAware ADS-B
Wed 00:50:37 44.7620 -67.6060 50° Northeast 553 636 33,000  Level FlightAware ADS-B
Wed 00:51:47 44.8770 -67.4140 50° Northeast 554 638 33,000  Level FlightAware ADS-B
Wed 00:52:27 44.9420 -67.3060 50° Northeast 555 639 33,000  Level FlightAware ADS-B
Wed 00:53:12 45.0170 -67.1790 50° Northeast 556 640 33,000  Level FlightAware ADS-B
Wed 00:53:52 45.0840 -67.0650 50° Northeast 558 642 33,000  Level FlightAware ADS-B
Wed 00:54:37 45.1580 -66.9390 50° Northeast 560 644 33,000  Level FlightAware ADS-B
Wed 00:55:17 45.2240 -66.8280 50° Northeast 560 644 33,000  Level FlightAware ADS-B
Wed 00:56:02 45.2990 -66.6990 50° Northeast 561 646 33,000  Level FlightAware ADS-B
Wed 00:56:42 45.3650 -66.5860 50° Northeast 562 647 33,000  Level FlightAware ADS-B
Wed 00:57:22 45.4310 -66.4730 50° Northeast 563 648 33,000  Level FlightAware ADS-B
Wed 00:58:07 45.5050 -66.3430 51° Northeast 564 649 33,000  Level FlightAware ADS-B
Wed 00:58:47 45.5710 -66.2290 50° Northeast 565 650 33,000  Level FlightAware ADS-B
Wed 00:59:32 45.6470 -66.0970 50° Northeast 568 654 33,000  Level FlightAware ADS-B
Wed 01:00:12 45.7160 -65.9750 51° Northeast 568 654 33,000  Level FlightAware ADS-B
Wed 01:00:52 45.7830 -65.8570 51° Northeast 568 654 33,000  Level FlightAware ADS-B
Wed 01:01:37 45.8570 -65.7260 51° Northeast 568 654 33,000  Level FlightAware ADS-B
Wed 01:02:17 45.9250 -65.6060 51° Northeast 567 652 33,000  Level FlightAware ADS-B
Wed 01:02:57 45.9890 -65.4910 51° Northeast 566 651 33,000  Level FlightAware ADS-B
Wed 01:03:32 46.0430 -65.3950 51° Northeast 566 651 33,000  Level FlightAware ADS-B
Wed 01:04:22 46.1210 -65.2570 51° Northeast 566 651 33,000  Level FlightAware ADS-B
Wed 01:05:02 46.1770 -65.1570 51° Northeast 566 651 33,000  Level FlightAware ADS-B
Wed 01:05:42 46.2330 -65.0570 51° Northeast 566 651 33,000  Level FlightAware ADS-B
Wed 01:06:32 46.3030 -64.9320 51° Northeast 566 651 33,000  Level FlightAware ADS-B
Wed 01:07:12 46.3590 -64.8310 51° Northeast 566 651 33,000  Level FlightAware ADS-B
Wed 01:07:52 46.4150 -64.7310 51° Northeast 566 651 33,000  Level FlightAware ADS-B
Wed 01:08:32 46.4710 -64.6310 51° Northeast 566 651 33,000  Level FlightAware ADS-B
Wed 01:09:12 46.5270 -64.5300 51° Northeast 566 651 33,000  Level FlightAware ADS-B
Wed 01:09:52 46.5830 -64.4290 51° Northeast 566 651 33,000  Level FlightAware ADS-B
Wed 01:10:42 46.6530 -64.3030 51° Northeast 566 651 33,000  Level FlightAware ADS-B
Wed 01:11:22 46.7090 -64.2030 51° Northeast 566 651 33,000  Level FlightAware ADS-B
Wed 01:12:02 46.7650 -64.1020 51° Northeast 566 651 33,000  Level FlightAware ADS-B
Wed 01:12:42 46.8210 -64.0010 51° Northeast 566 651 33,000  Level FlightAware ADS-B
Wed 01:13:32 46.8910 -63.8740 51° Northeast 566 651 33,000  Level FlightAware ADS-B
Wed 01:13:47 47.0333 -63.5333 51° Northeast 570 656 33,000  Level Gander Center
Wed 01:14:13 47.0833 -63.4333 54° Northeast 570 656 33,000  Level Gander Center
Wed 01:14:52 47.1667 -63.3167 44° Northeast 560 644 33,000  Level Moncton Center
Wed 01:15:52 47.2333 -63.1333 62° Northeast 560 644 33,000  Level Moncton Center
Wed 01:16:52 47.3333 -62.9667 48° Northeast 560 644 33,000  Level Moncton Center
Wed 01:17:52 47.4333 -62.7667 53° Northeast 560 644 33,000  Level Moncton Center
Wed 01:18:52 47.5167 -62.5833 56° Northeast 560 644 33,000  Level Moncton Center
Wed 01:19:52 47.6167 -62.3833 53° Northeast 570 656 33,000  Level Moncton Center
Wed 01:20:52 47.7167 -62.2000 51° Northeast 570 656 33,000  Level Moncton Center
Wed 01:21:52 47.8000 -62.0333 53° Northeast 560 644 33,000  Level Moncton Center
Wed 01:22:52 47.9000 -61.8167 55° Northeast 570 656 33,000  Level Moncton Center
Wed 01:23:13 47.9333 -61.7500 53° Northeast 570 656 33,000  Level Gander Center
Wed 01:24:13 48.0333 -61.5500 53° Northeast 570 656 33,000  Level Gander Center
Wed 01:24:52 48.0833 -61.4333 57° Northeast 560 644 33,000  Level Moncton Center
Wed 01:25:52 48.1833 -61.2500 51° Northeast 570 656 33,000  Level Moncton Center
Wed 01:26:13 48.2000 -61.1833 69° East 570 656 33,000  Level Gander Center
Wed 01:26:52 48.2500 -61.0833 53° Northeast 570 656 33,000  Level Moncton Center
Wed 01:27:52 48.3500 -60.8667 55° Northeast 570 656 33,000  Level Moncton Center
Wed 01:28:52 48.4500 -60.6833 51° Northeast 560 644 33,000  Level Moncton Center
Wed 01:29:52 48.5333 -60.4833 58° Northeast 560 644 33,000  Level Moncton Center
Wed 01:30:52 48.6333 -60.3000 50° Northeast 560 644 33,000  Level Moncton Center
Wed 01:31:52 48.7167 -60.0833 60° Northeast 560 644 33,000  Level Moncton Center
Wed 01:32:52 48.8000 -59.9000 55° Northeast 560 644 33,000  Level Moncton Center
Wed 01:33:52 48.9000 -59.7167 50° Northeast 560 644 33,000  Level Moncton Center
Wed 01:34:52 48.9833 -59.5000 60° Northeast 560 644 33,000  Level Moncton Center
Wed 01:35:52 49.0667 -59.3167 55° Northeast 560 644 33,000  Level Moncton Center
Wed 01:36:52 49.1500 -59.1000 59° Northeast 560 644 33,000  Level Moncton Center
Wed 01:37:52 49.2500 -58.9000 53° Northeast 560 644 33,000  Level Moncton Center
Wed 01:38:52 49.3167 -58.7167 61° Northeast 560 644 33,000  Level Moncton Center
Wed 01:39:52 49.4167 -58.5000 55° Northeast 560 644 33,000  Level Moncton Center
Wed 01:40:13 49.4333 -58.4333 69° East 560 644 33,000  Level Gander Center
Wed 01:40:52 49.4833 -58.3167 57° Northeast 560 644 33,000  Level Moncton Center
Wed 01:41:52 49.5500 -58.1000 65° Northeast 560 644 33,000  Level Moncton Center
Wed 01:42:13 49.5833 -58.0000 63° Northeast 560 644 33,000  Level Gander Center
Wed 01:43:13 49.6667 -57.8000 57° Northeast 560 644 33,000  Level Gander Center
Wed 01:44:13 49.7500 -57.5833 59° Northeast 570 656 33,000  Level Gander Center
Wed 01:45:13 49.8000 -57.3667 70° East 560 644 33,000  Level Gander Center
Wed 01:46:13 49.8833 -57.1500 59° Northeast 570 656 33,000  Level Gander Center
Wed 01:47:13 49.9500 -56.9333 64° Northeast 560 644 33,000  Level Gander Center
Wed 01:48:13 50.0333 -56.7333 57° Northeast 560 644 33,000  Level Gander Center
Wed 01:49:13 50.1000 -56.5167 64° Northeast 560 644 33,000  Level Gander Center
Wed 01:50:13 50.1833 -56.3000 59° Northeast 560 644 33,000  Level Gander Center
Wed 01:51:13 50.2333 -56.0833 70° East 560 644 33,000  Level Gander Center
Wed 01:52:13 50.3167 -55.8667 59° Northeast 560 644 33,000  Level Gander Center
Wed 01:53:13 50.3833 -55.6333 66° East 560 644 33,000  Level Gander Center
Wed 01:53:47 50.4167 -55.5333 62° Northeast 560 644 33,000  Level Gander Center
Wed 01:54:13 50.4333 -55.4167 77° East 560 644 33,000  Level Gander Center
Wed 01:55:13 50.5167 -55.2000 59° Northeast 560 644 33,000  Level Gander Center
Wed 01:56:13 50.5833 -54.9833 64° Northeast 550 633 33,000  Level Gander Center
Wed 01:57:13 50.6500 -54.7667 64° Northeast 550 633 33,000  Level Gander Center
Wed 01:58:13 50.7167 -54.5667 62° Northeast 550 633 33,000  Level Gander Center
Wed 01:58:47 50.7500 -54.4333 68° East 550 633 33,000  Level Gander Center
Wed 01:59:13 50.7833 -54.3500 58° Northeast 540 621 33,000  Level Gander Center
Wed 02:00:13 50.8500 -54.1167 66° East 540 621 33,000  Level Gander Center
Wed 02:00:47 50.8833 -54.0167 62° Northeast 540 621 33,000  Level Gander Center
Wed 02:01:47 50.9500 -53.7833 66° East 530 610 33,000  Level Gander Center
Wed 02:02:13 50.9833 -53.7000 58° Northeast 540 621 33,000  Level Gander Center
Wed 02:03:13 51.0333 -53.4833 70° East 530 610 33,000  Level Gander Center
Wed 02:03:52 51.0667 -53.3500 68° East 530 610 33,000  Level Moncton Center
Wed 02:04:52 51.1333 -53.1333 64° Northeast 530 610 33,000  Level Moncton Center
Wed 02:05:13 51.1500 -53.0667 68° East 530 610 33,000  Level Gander Center
Wed 02:05:52 51.1833 -52.9333 68° East 510 587 33,000  Level Moncton Center
Wed 02:06:13 51.2167 -52.8667 51° Northeast 520 598 33,000  Level Gander Center
Wed 02:07:13 51.2667 -52.6333 71° East 520 598 33,000  Level Gander Center
Wed 02:08:13 51.3333 -52.4333 62° Northeast 520 598 33,000  Level Gander Center
Wed 02:08:52 51.3667 -52.3000 68° East 510 587 33,000  Level Moncton Center
Wed 02:10:13 51.4500 -52.0167 65° Northeast 510 587 33,000  Level Gander Center
Wed 02:11:13 51.5000 -51.8167 68° East 510 587 33,000  Level Gander Center
Wed 02:12:13 51.5667 -51.6000 64° Northeast 510 587 33,000  Level Gander Center
Wed 02:12:47 51.6000 -51.4833 65° Northeast 510 587 33,000  Level Gander Center
Wed 02:13:47 51.6500 -51.2833 68° East 500 575 33,000  Level Gander Center
Wed 02:14:13 51.6833 -51.1667 65° Northeast 500 575 33,000  Level Gander Center
Wed 02:14:47 51.7000 -51.0667 75° East 500 575 33,000  Level Gander Center
Wed 02:15:13 51.7333 -50.9667 62° Northeast 500 575 33,000  Level Gander Center
Wed 02:16:13 51.7667 -50.7667 75° East 490 564 33,000  Level Gander Center
Wed 02:17:13 51.8167 -50.5667 68° East 500 575 33,000  Level Gander Center
Wed 02:18:13 51.8833 -50.3667 62° Northeast 500 575 33,000  Level Gander Center
Wed 02:20:15 52.0000 -49.9500 65° Northeast 510 587 33,000  Level Gander Center
Wed 02:22:00 52.0000 -50.0000 68° East 530 610 33,000  Level ETMS Enhanced Traffic Management System
Wed 02:28:00 52.4345 -48.2116 69° East 530 610 33,000  Level FlightAware Transoceanic
Wed 02:29:00 52.4869 -47.9856 69° East 530 610 33,000  Level FlightAware Transoceanic
Wed 02:30:00 52.5389 -47.7591 69° East 530 610 33,000  Level FlightAware Transoceanic
Wed 02:31:00 52.5904 -47.5320 70° East 530 610 33,000  Level FlightAware Transoceanic
Wed 02:32:00 52.6415 -47.3044 70° East 530 610 33,000  Level FlightAware Transoceanic
Wed 02:33:00 52.6922 -47.0763 70° East 530 610 33,000  Level FlightAware Transoceanic
Wed 02:34:00 52.7424 -46.8476 70° East 530 610 33,000  Level FlightAware Transoceanic
Wed 02:35:00 52.7922 -46.6184 70° East 530 610 33,000  Level FlightAware Transoceanic
Wed 02:36:00 52.8415 -46.3887 71° East 530 610 33,000  Level FlightAware Transoceanic
Wed 02:37:00 52.8904 -46.1585 71° East 530 610 33,000  Level FlightAware Transoceanic
Wed 02:38:00 52.9389 -45.9277 71° East 530 610 33,000  Level FlightAware Transoceanic
Wed 02:39:00 52.9869 -45.6965 71° East 530 610 33,000  Level FlightAware Transoceanic
Wed 02:40:00 53.0344 -45.4647 71° East 530 610 33,000  Level FlightAware Transoceanic
Wed 02:41:00 53.0815 -45.2324 71° East 530 610 33,000  Level FlightAware Transoceanic
Wed 02:42:00 53.1282 -44.9997 72° East 530 610 33,000  Level FlightAware Transoceanic
Wed 02:43:00 53.1743 -44.7664 72° East 530 610 33,000  Level FlightAware Transoceanic
Wed 02:44:00 53.2201 -44.5326 72° East 530 610 33,000  Level FlightAware Transoceanic
Wed 02:45:00 53.2654 -44.2983 72° East 530 610 33,000  Level FlightAware Transoceanic
Wed 02:46:00 53.3102 -44.0635 72° East 530 610 33,000  Level FlightAware Transoceanic
Wed 02:47:00 53.3545 -43.8282 73° East 530 610 33,000  Level FlightAware Transoceanic
Wed 02:48:00 53.3984 -43.5925 73° East 530 610 33,000  Level FlightAware Transoceanic
Wed 02:49:00 53.4418 -43.3562 73° East 530 610 33,000  Level FlightAware Transoceanic
Wed 02:50:00 53.4848 -43.1195 73° East 530 610 33,000  Level FlightAware Transoceanic
Wed 02:51:00 53.5273 -42.8823 73° East 530 610 33,000  Level FlightAware Transoceanic
Wed 02:52:00 53.5693 -42.6446 74° East 530 610 33,000  Level FlightAware Transoceanic
Wed 02:53:00 53.6109 -42.4065 74° East 530 610 33,000  Level FlightAware Transoceanic
Wed 02:54:00 53.6519 -42.1679 74° East 530 610 33,000  Level FlightAware Transoceanic
Wed 02:55:00 53.6925 -41.9288 74° East 530 610 33,000  Level FlightAware Transoceanic
Wed 02:56:00 53.7326 -41.6893 74° East 530 610 33,000  Level FlightAware Transoceanic
Wed 02:57:00 53.7723 -41.4493 74° East 530 610 33,000  Level FlightAware Transoceanic
Wed 02:58:00 53.8114 -41.2088 75° East 530 610 33,000  Level FlightAware Transoceanic
Wed 02:59:00 53.8501 -40.9679 75° East 530 610 33,000  Level FlightAware Transoceanic
Wed 03:00:00 53.8883 -40.7266 75° East 530 610 33,000  Level FlightAware Transoceanic
Wed 03:01:00 53.9260 -40.4848 75° East 530 610 33,000  Level FlightAware Transoceanic
Wed 03:02:00 53.9633 -40.2426 75° East 530 610 33,000  Level FlightAware Transoceanic
Wed 03:03:00 53.9990 -40.0066 75° East  Level FlightAware Approximate
Wed 03:04:00 54.0343 -39.7701 76° East  Level FlightAware Approximate
Wed 03:05:00 54.0318 -39.7761 76° East  Level FlightAware Approximate
Wed 03:06:00 54.0651 -39.5386 76° East  Level FlightAware Approximate
Wed 03:06:00 54.0000 -40.0000 76° East 543 625 33,000  Level ETMS Enhanced Traffic Management System
Wed 03:07:00 54.0979 -39.3008 77° East  Level FlightAware Approximate
Wed 03:08:00 54.1303 -39.0625 77° East  Level FlightAware Approximate
Wed 03:09:00 54.1622 -38.8239 77° East  Level FlightAware Approximate
Wed 03:10:00 54.1935 -38.5850 77° East  Level FlightAware Approximate
Wed 03:11:00 54.2245 -38.3456 77° East  Level FlightAware Approximate
Wed 03:12:00 54.2549 -38.1059 78° East  Level FlightAware Approximate
Wed 03:13:00 54.3345 -37.4854 78° East 543 625 33,000  Level FlightAware Transoceanic
Wed 03:14:00 54.3651 -37.2318 78° East 543 625 33,000  Level FlightAware Transoceanic
Wed 03:15:00 54.3951 -36.9778 79° East 543 625 33,000  Level FlightAware Transoceanic
Wed 03:16:00 54.4246 -36.7234 79° East 543 625 33,000  Level FlightAware Transoceanic
Wed 03:17:00 54.4536 -36.4686 79° East 543 625 33,000  Level FlightAware Transoceanic
Wed 03:18:00 54.4820 -36.2135 79° East 543 625 33,000  Level FlightAware Transoceanic
Wed 03:19:00 54.5099 -35.9581 79° East 543 625 33,000  Level FlightAware Transoceanic
Wed 03:20:00 54.5372 -35.7023 80° East 543 625 33,000  Level FlightAware Transoceanic
Wed 03:21:00 54.5640 -35.4462 80° East 543 625 33,000  Level FlightAware Transoceanic
Wed 03:22:00 54.5903 -35.1897 80° East 543 625 33,000  Level FlightAware Transoceanic
Wed 03:23:00 54.6160 -34.9329 80° East 543 625 33,000  Level FlightAware Transoceanic
Wed 03:24:00 54.6412 -34.6758 81° East 543 625 33,000  Level FlightAware Transoceanic
Wed 03:25:00 54.6658 -34.4183 81° East 543 625 33,000  Level FlightAware Transoceanic
Wed 03:26:00 54.6899 -34.1606 81° East 543 625 33,000  Level FlightAware Transoceanic
Wed 03:27:00 54.7134 -33.9025 81° East 543 625 33,000  Level FlightAware Transoceanic
Wed 03:28:00 54.7364 -33.6442 81° East 543 625 33,000  Level FlightAware Transoceanic
Wed 03:29:00 54.7588 -33.3856 82° East 543 625 33,000  Level FlightAware Transoceanic
Wed 03:30:00 54.7807 -33.1267 82° East 543 625 33,000  Level FlightAware Transoceanic
Wed 03:31:00 54.8020 -32.8675 82° East 543 625 33,000  Level FlightAware Transoceanic
Wed 03:32:00 54.8228 -32.6080 82° East 543 625 33,000  Level FlightAware Transoceanic
Wed 03:33:00 54.8430 -32.3483 82° East 543 625 33,000  Level FlightAware Transoceanic
Wed 03:34:00 54.8627 -32.0883 83° East 543 625 33,000  Level FlightAware Transoceanic
Wed 03:35:00 54.8818 -31.8281 83° East 543 625 33,000  Level FlightAware Transoceanic
Wed 03:36:00 54.9004 -31.5676 83° East 543 625 33,000  Level FlightAware Transoceanic
Wed 03:37:00 54.9184 -31.3069 83° East 543 625 33,000  Level FlightAware Transoceanic
Wed 03:38:00 54.9358 -31.0459 83° East 543 625 33,000  Level FlightAware Transoceanic
Wed 03:39:00 54.9527 -30.7848 84° East 543 625 33,000  Level FlightAware Transoceanic
Wed 03:40:00 54.9690 -30.5234 84° East 543 625 33,000  Level FlightAware Transoceanic
Wed 03:41:00 54.9848 -30.2618 84° East 543 625 33,000  Level FlightAware Transoceanic
Wed 03:42:00 54.9992 -30.0132 84° East  Level FlightAware Approximate
Wed 03:43:00 55.0131 -29.7644 84° East  Level FlightAware Approximate
Wed 03:44:00 55.0089 -29.7771 86° East  Level FlightAware Approximate
Wed 03:45:00 55.0183 -29.5277 86° East  Level FlightAware Approximate
Wed 03:46:00 55.0273 -29.2781 86° East  Level FlightAware Approximate
Wed 03:46:00 55.0000 -30.0000 86° East 557 641 33,000  Level ETMS Enhanced Traffic Management System
Wed 03:47:00 55.0357 -29.0285 87° East  Level FlightAware Approximate
Wed 03:48:00 55.0436 -28.7795 87° East  Level FlightAware Approximate
Wed 03:49:00 55.0510 -28.5305 87° East  Level FlightAware Approximate
Wed 03:50:00 55.0580 -28.2814 87° East  Level FlightAware Approximate
Wed 03:51:00 55.0645 -28.0322 87° East  Level FlightAware Approximate
Wed 03:52:00 55.0755 -27.5708 88° East 557 641 33,000  Level FlightAware Transoceanic
Wed 03:53:00 55.0809 -27.3004 88° East 557 641 33,000  Level FlightAware Transoceanic
Wed 03:54:00 55.0857 -27.0299 88° East 557 641 33,000  Level FlightAware Transoceanic
Wed 03:55:00 55.0899 -26.7594 89° East 557 641 33,000  Level FlightAware Transoceanic
Wed 03:56:00 55.0935 -26.4888 89° East 557 641 33,000  Level FlightAware Transoceanic
Wed 03:57:00 55.0965 -26.2182 89° East 557 641 33,000  Level FlightAware Transoceanic
Wed 03:58:00 55.0989 -25.9475 89° East 557 641 33,000  Level FlightAware Transoceanic
Wed 03:59:00 55.1007 -25.6768 89° East 557 641 33,000  Level FlightAware Transoceanic
Wed 04:00:00 55.1019 -25.4061 90° East 557 641 33,000  Level FlightAware Transoceanic
Wed 04:01:00 55.1025 -25.1354 90° East 557 641 33,000  Level FlightAware Transoceanic
Wed 04:02:00 55.1025 -24.8646 90° East 557 641 33,000  Level FlightAware Transoceanic
Wed 04:03:00 55.1019 -24.5939 90° East 557 641 33,000  Level FlightAware Transoceanic
Wed 04:04:00 55.1007 -24.3232 91° East 557 641 33,000  Level FlightAware Transoceanic
Wed 04:05:00 55.0989 -24.0525 91° East 557 641 33,000  Level FlightAware Transoceanic
Wed 04:06:00 55.0965 -23.7818 91° East 557 641 33,000  Level FlightAware Transoceanic
Wed 04:07:00 55.0935 -23.5112 91° East 557 641 33,000  Level FlightAware Transoceanic
Wed 04:08:00 55.0899 -23.2406 91° East 557 641 33,000  Level FlightAware Transoceanic
Wed 04:09:00 55.0857 -22.9701 92° East 557 641 33,000  Level FlightAware Transoceanic
Wed 04:10:00 55.0809 -22.6996 92° East 557 641 33,000  Level FlightAware Transoceanic
Wed 04:11:00 55.0755 -22.4292 92° East 557 641 33,000  Level FlightAware Transoceanic
Wed 04:12:00 55.0695 -22.1589 92° East 557 641 33,000  Level FlightAware Transoceanic
Wed 04:13:00 55.0629 -21.8886 93° East 557 641 33,000  Level FlightAware Transoceanic
Wed 04:14:00 55.0557 -21.6185 93° East 557 641 33,000  Level FlightAware Transoceanic
Wed 04:15:00 55.0479 -21.3484 93° East 557 641 33,000  Level FlightAware Transoceanic
Wed 04:16:00 55.0395 -21.0785 93° East 557 641 33,000  Level FlightAware Transoceanic
Wed 04:17:00 55.0305 -20.8087 93° East 557 641 33,000  Level FlightAware Transoceanic
Wed 04:18:00 55.0210 -20.5390 94° East 557 641 33,000  Level FlightAware Transoceanic
Wed 04:19:00 55.0108 -20.2694 94° East 557 641 33,000  Level FlightAware Transoceanic
Wed 04:20:00 55.0009 -20.0209 94° East  Level FlightAware Approximate
Wed 04:21:00 54.9904 -19.7726 94° East  Level FlightAware Approximate
Wed 04:22:00 54.9751 -19.7976 102° East  Level FlightAware Approximate
Wed 04:23:00 54.9447 -19.5545 102° East  Level FlightAware Approximate
Wed 04:24:00 54.9139 -19.3117 102° East  Level FlightAware Approximate
Wed 04:25:00 54.8825 -19.0693 103° East  Level FlightAware Approximate
Wed 04:26:00 54.8507 -18.8274 103° East  Level FlightAware Approximate
Wed 04:27:00 54.8184 -18.5858 103° East  Level FlightAware Approximate
Wed 04:28:00 54.7856 -18.3445 103° East  Level FlightAware Approximate
Wed 04:29:00 54.7523 -18.1037 103° East  Level FlightAware Approximate
Wed 04:30:00 54.7186 -17.8633 104° East  Level FlightAware Approximate
Wed 04:31:00 54.6843 -17.6233 104° East  Level FlightAware Approximate
Wed 04:32:00 54.6497 -17.3837 104° East  Level FlightAware Approximate
Wed 04:33:00 54.6145 -17.1445 104° East  Level FlightAware Approximate
Wed 04:34:00 54.5788 -16.9057 104° East  Level FlightAware Approximate
Wed 04:35:00 54.5427 -16.6673 105° East  Level FlightAware Approximate
Wed 04:36:00 54.5062 -16.4294 105° East  Level FlightAware Approximate
Wed 04:37:00 54.4691 -16.1918 105° East  Level FlightAware Approximate
Wed 04:38:00 54.4316 -15.9548 105° East  Level FlightAware Approximate
Wed 04:39:00 54.3937 -15.7181 105° East  Level FlightAware Approximate
Wed 04:40:00 54.3552 -15.4819 106° East  Level FlightAware Approximate
Wed 04:41:00 54.3163 -15.2461 106° East  Level FlightAware Approximate
Wed 04:42:00 54.2770 -15.0108 106° East  Level FlightAware Approximate
Wed 04:43:00 54.2372 -14.7760 106° East  Level FlightAware Approximate
Wed 04:44:00 54.1969 -14.5416 106° East  Level FlightAware Approximate
Wed 04:45:00 54.1563 -14.3080 106° East  Level FlightAware Approximate
Wed 04:45:37 54.6690 -13.6260 107° East 531 611 33,000  Level FlightAware ADS-B
Wed 04:46:00 54.1154 -14.0748 105° East  Level FlightAware Approximate
Wed 04:47:00 54.0785 -13.8399 107° East  Level FlightAware Approximate
Wed 04:47:17 54.5690 -13.2440 114° Southeast 525 604 33,000  Level FlightAware ADS-B
Wed 04:48:12 54.5120 -13.0310 115° Southeast 522 601 33,000  Level FlightAware ADS-B
Wed 04:49:37 54.4250 -12.7090 115° Southeast 519 597 33,000  Level FlightAware ADS-B
Wed 04:50:42 54.3580 -12.4650 115° Southeast 518 596 33,000  Level FlightAware ADS-B
Wed 04:51:42 54.2970 -12.2440 115° Southeast 520 598 33,000  Level FlightAware ADS-B
Wed 04:53:22 54.1930 -11.8710 115° Southeast 517 595 33,000  Level FlightAware ADS-B
Wed 04:54:32 54.1210 -11.6180 116° Southeast 518 596 33,000  Level FlightAware ADS-B
Wed 04:55:07 54.0790 -11.4710 116° Southeast 518 596 33,000  Level FlightAware ADS-B
Wed 04:55:57 54.0270 -11.2870 116° Southeast 518 596 33,000  Level FlightAware ADS-B
Wed 04:56:37 53.9880 -11.1550 117° Southeast 518 596 33,000  Level FlightAware ADS-B
Wed 04:57:17 53.9440 -11.0010 116° Southeast 517 595 33,000  Level FlightAware ADS-B
Wed 04:57:52 53.9080 -10.8820 117° Southeast 517 595 33,000  Level FlightAware ADS-B
Wed 04:58:42 53.8540 -10.6960 116° Southeast 518 596 33,000  Level FlightAware ADS-B
Wed 04:59:37 53.7960 -10.5020 117° Southeast 521 600 33,000  Level FlightAware ADS-B
Wed 05:00:42 53.7310 -10.2840 117° Southeast 521 600 33,000  Level FlightAware ADS-B
Wed 05:01:32 53.6760 -10.1030 117° Southeast 520 598 33,000  Level FlightAware ADS-B
Wed 05:02:07 53.6340 -9.9640 117° Southeast 524 603 33,000  Level FlightAware ADS-B
Wed 05:04:00 53.5598 -9.5290 106° East  Level Estimated
Wed 05:04:17 53.4830 -9.4720 106° East 528 608 33,000  Level FlightAware ADS-B
Wed 05:05:02 53.4330 -9.3120 118° Southeast 529 609 33,000  Level FlightAware ADS-B
Wed 05:05:42 53.3880 -9.1710 118° Southeast 526 605 33,000 -1,286 Level FlightAware ADS-B
Wed 05:06:12 53.3561 -8.9854 118° Southeast 490 564 31,500  Descending FlightAware UK
Wed 05:06:27 53.3390 -9.0130 118° Southeast 526 605 33,000  Climbing FlightAware ADS-B
Wed 05:06:42 53.3216 -8.8770 118° Southeast 488 562 31,500 -2,727 Descending FlightAware UK
Wed 05:07:00 53.3008 -8.8120 118° Southeast 490 564 31,500 3,600 Level FlightAware UK
Wed 05:07:07 53.2910 -8.8640 118° Southeast 527 606 33,000  Climbing FlightAware ADS-B
Wed 05:07:24 53.2732 -8.7251 118° Southeast 490 564 31,500 -2,571 Descending FlightAware UK
Wed 05:07:42 53.2522 -8.6600 118° Southeast 490 564 31,500 3,214 Level FlightAware UK
Wed 05:07:52 53.2370 -8.6960 118° Southeast 528 608 33,000  Climbing FlightAware ADS-B
Wed 05:08:12 53.2170 -8.5517 118° Southeast 490 564 31,500 -2,368 Descending FlightAware UK
Wed 05:08:30 53.1960 -8.4868 118° Southeast 490 564 31,500 4,500 Level FlightAware UK
Wed 05:08:32 53.1900 -8.5490 118° Southeast 527 606 33,000  Climbing FlightAware ADS-B
Wed 05:08:48 53.1749 -8.4219 118° Southeast 490 564 31,500 -2,647 Descending FlightAware UK
Wed 05:09:06 53.1535 -8.3564 118° Southeast 490 564 31,500 3,103 Level FlightAware UK
Wed 05:09:17 53.1390 -8.3900 118° Southeast 528 608 33,000  Climbing FlightAware ADS-B
Wed 05:09:36 53.1184 -8.2485 118° Southeast 490 564 31,500 -2,432 Descending FlightAware UK
Wed 05:09:54 53.0972 -8.1838 119° Southeast 492 566 31,500 4,286 Level FlightAware UK
Wed 05:09:57 53.0910 -8.2440 119° Southeast 527 606 33,000  Climbing FlightAware ADS-B
Wed 05:10:12 53.0759 -8.1192 119° Southeast 494 568 31,500 -2,727 Descending FlightAware UK
Wed 05:10:30 53.0545 -8.0549 119° Southeast 490 564 31,500 3,600 Level FlightAware UK
Wed 05:10:37 53.0440 -8.1020 119° Southeast 526 605 33,000  Climbing FlightAware ADS-B
Wed 05:10:54 53.0261 -7.9690 119° Southeast 490 564 31,500 -2,571 Descending FlightAware UK
Wed 05:11:12 53.0049 -7.9048 119° Southeast 490 564 31,500 3,214 Level FlightAware UK
Wed 05:11:22 52.9910 -7.9420 119° Southeast 526 605 33,000  Climbing FlightAware ADS-B
Wed 05:11:42 52.9693 -7.7979 119° Southeast 492 566 31,500  Descending FlightAware UK
Wed 05:11:57 52.9500 -7.8170 119° Southeast 529 609 33,000  Climbing FlightAware ADS-B
Wed 05:12:00 52.9481 -7.7339 119° Southeast 492 566 31,500 -6,000 Descending FlightAware UK
Wed 05:12:12 52.9338 -7.6914 119° Southeast 492 566 31,500  Level FlightAware UK
Wed 05:12:30 52.9124 -7.6278 119° Southeast 492 566 31,500 2,571 Level FlightAware UK
Wed 05:12:47 52.8910 -7.6400 119° Southeast 528 608 33,000  Climbing FlightAware ADS-B
Wed 05:13:06 52.8695 -7.5010 119° Southeast 490 564 31,500  Descending FlightAware UK
Wed 05:13:27 52.8430 -7.4980 119° Southeast 527 606 33,000  Climbing FlightAware ADS-B
Wed 05:13:42 52.8266 -7.3743 119° Southeast 488 562 31,500 -2,727 Descending FlightAware UK
Wed 05:14:00 52.8051 -7.3111 119° Southeast 488 562 31,500 3,600 Level FlightAware UK
Wed 05:14:07 52.7960 -7.3580 119° Southeast 528 608 33,000  Climbing FlightAware ADS-B
Wed 05:14:24 52.7765 -7.2268 119° Southeast 492 566 31,500 -2,571 Descending FlightAware UK
Wed 05:14:42 52.7546 -7.1631 120° Southeast 492 566 31,500 3,214 Level FlightAware UK
Wed 05:14:52 52.7430 -7.2010 120° Southeast 527 606 33,000  Climbing FlightAware ADS-B
Wed 05:15:12 52.7185 -7.0582 120° Southeast 490 564 31,500 -2,368 Descending FlightAware UK
Wed 05:15:30 52.6969 -6.9952 120° Southeast 490 564 31,500 4,500 Level FlightAware UK
Wed 05:15:32 52.6940 -7.0600 120° Southeast 527 606 33,000  Climbing FlightAware ADS-B
Wed 05:15:48 52.6752 -6.9324 120° Southeast 490 564 31,500 -2,647 Descending FlightAware UK
Wed 05:16:06 52.6534 -6.8697 120° Southeast 490 564 31,500 3,750 Level FlightAware UK
Wed 05:16:12 52.6460 -6.9190 120° Southeast 527 606 33,000  Climbing FlightAware ADS-B
Wed 05:16:30 52.6245 -6.7860 120° Southeast 492 566 31,500 -2,500 Descending FlightAware UK
Wed 05:16:48 52.6027 -6.7234 120° Southeast 490 564 31,500 3,333 Level FlightAware UK
Wed 05:16:57 52.5920 -6.7620 120° Southeast 528 608 33,000  Climbing FlightAware ADS-B
Wed 05:17:12 52.5736 -6.6400 120° Southeast 490 564 31,500 -2,727 Descending FlightAware UK
Wed 05:17:30 52.5516 -6.5775 120° Southeast 490 564 31,500 3,600 Level FlightAware UK
Wed 05:17:37 52.5450 -6.6260 120° Southeast 527 606 33,000  Climbing FlightAware ADS-B
Wed 05:17:54 52.5223 -6.4943 120° Southeast 488 562 31,500 -2,571 Descending FlightAware UK
Wed 05:18:12 52.5003 -6.4319 120° Southeast 490 564 31,500 3,214 Level FlightAware UK
Wed 05:18:22 52.4930 -6.4790 120° Southeast 524 603 33,000  Climbing FlightAware ADS-B
Wed 05:18:42 52.4635 -6.3280 120° Southeast 490 564 31,500  Descending FlightAware UK
Wed 05:18:57 52.4470 -6.3480 120° Southeast 524 603 33,000  Climbing FlightAware ADS-B
Wed 05:19:00 52.4415 -6.2657 120° Southeast 492 566 31,500 -6,000 Descending FlightAware UK
Wed 05:19:12 52.4267 -6.2242 120° Southeast 490 564 31,500  Level FlightAware UK
Wed 05:19:30 52.4044 -6.1621 120° Southeast 490 564 31,500 2,571 Level FlightAware UK
Wed 05:19:47 52.3850 -6.1730 120° Southeast 528 608 33,000  Climbing FlightAware ADS-B
Wed 05:20:06 52.3600 -6.0379 120° Southeast 488 562 31,500  Descending FlightAware UK
Wed 05:20:27 52.3360 -6.0350 120° Southeast 529 609 33,000  Climbing FlightAware ADS-B
Wed 05:20:42 52.3151 -5.9133 120° Southeast 488 562 31,500 -2,727 Descending FlightAware UK
Wed 05:21:00 52.2928 -5.8513 120° Southeast 490 564 31,500 3,600 Level FlightAware UK
Wed 05:21:07 52.2880 -5.9010 120° Southeast 529 609 33,000  Climbing FlightAware ADS-B
Wed 05:21:24 52.2631 -5.7686 120° Southeast 488 562 31,500 -2,571 Descending FlightAware UK
Wed 05:21:42 52.2405 -5.7068 121° Southeast 490 564 31,500 3,214 Level FlightAware UK
Wed 05:21:52 52.2320 -5.7440 121° Southeast 530 610 33,000  Climbing FlightAware ADS-B
Wed 05:22:12 52.2030 -5.6038 121° Southeast 490 564 31,500 -2,368 Descending FlightAware UK
Wed 05:22:30 52.1803 -5.5421 121° Southeast 492 566 31,500 4,500 Level FlightAware UK
Wed 05:22:32 52.1790 -5.6000 121° Southeast 530 610 33,000  Climbing FlightAware ADS-B
Wed 05:22:48 52.1577 -5.4805 121° Southeast 492 566 31,500 -2,647 Descending FlightAware UK
Wed 05:23:06 52.1351 -5.4189 121° Southeast 490 564 31,500 3,103 Level FlightAware UK
Wed 05:23:17 52.1260 -5.4490 121° Southeast 533 613 33,000  Climbing FlightAware ADS-B
Wed 05:23:36 52.1042 -5.3097 121° Southeast 490 564 31,500 -2,432 Descending FlightAware UK
Wed 05:23:54 52.0897 -5.2407 109° East 492 566 31,500 4,286 Level FlightAware UK
Wed 05:23:57 52.0890 -5.2970 109° East 539 620 33,000  Climbing FlightAware ADS-B
Wed 05:24:12 52.0752 -5.1718 109° East 492 566 31,500 -2,727 Descending FlightAware UK
Wed 05:24:30 52.0604 -5.1028 109° East 492 566 31,500 3,600 Level FlightAware UK
Wed 05:24:37 52.0580 -5.1470 109° East 540 621 33,000  Climbing FlightAware ADS-B
Wed 05:24:54 52.0406 -5.0111 109° East 492 566 31,500 -2,571 Descending FlightAware UK
Wed 05:25:12 52.0258 -4.9423 109° East 490 564 31,500 3,214 Level FlightAware UK
Wed 05:25:22 52.0210 -4.9710 109° East 539 620 33,000  Climbing FlightAware ADS-B
Wed 05:25:42 52.0012 -4.8270 109° East 490 564 31,500 -2,368 Descending FlightAware UK
Wed 05:26:00 51.9862 -4.7584 109° East 490 564 31,500 4,500 Level FlightAware UK
Wed 05:26:02 51.9880 -4.8170 109° East 541 623 33,000  Climbing FlightAware ADS-B
Wed 05:26:18 51.9711 -4.6898 109° East 490 564 31,500  Descending FlightAware UK
Wed 05:26:42 51.9540 -4.6640 109° East 541 623 33,000  Climbing FlightAware ADS-B
Wed 05:27:00 51.9360 -4.5297 109° East 492 566 31,500 -2,500 Descending FlightAware UK
Wed 05:27:18 51.9210 -4.4612 109° East 492 566 31,500 3,333 Level FlightAware UK
Wed 05:27:27 51.9180 -4.4970 109° East 538 619 33,000  Climbing FlightAware ADS-B
Wed 05:27:42 51.9008 -4.3700 109° East 492 566 31,500  Descending FlightAware UK
Wed 05:28:07 51.8840 -4.3440 109° East 539 620 33,000 1,286 Climbing FlightAware ADS-B
Wed 05:28:52 51.8480 -4.1750 109° East 538 619 33,000 -1,364 Level FlightAware ADS-B
Wed 05:29:13 51.8252 -4.0285 109° East 494 568 31,500  Descending FlightAware UK
Wed 05:29:32 51.8130 -4.0200 109° East 536 617 33,000  Climbing FlightAware ADS-B
Wed 05:29:55 51.7895 -3.8706 109° East 492 566 31,500  Descending FlightAware UK
Wed 05:30:12 51.7790 -3.8690 109° East 533 613 33,000  Climbing FlightAware ADS-B
Wed 05:30:49 51.7471 -3.6676 109° East 490 564 31,500  Descending FlightAware UK
Wed 05:30:57 51.7470 -3.7000 109° East 537 618 33,000  Climbing FlightAware ADS-B
Wed 05:31:31 51.7280 -3.5019 109° East 490 564 31,500  Descending FlightAware UK
Wed 05:31:37 51.7310 -3.5430 109° East 543 625 33,000  Climbing FlightAware ADS-B
Wed 05:31:55 51.7211 -3.4049 109° East 490 564 31,500 -2,500 Descending FlightAware UK
Wed 05:32:13 51.7156 -3.3329 97° East 490 564 31,500 3,333 Level FlightAware UK
Wed 05:32:22 51.7180 -3.3620 97° East 541 623 33,000  Climbing FlightAware ADS-B
Wed 05:32:49 51.7048 -3.1884 97° East 490 564 31,500  Descending FlightAware UK
Wed 05:33:02 51.7060 -3.2000 97° East 540 621 33,000 2,368 Climbing FlightAware ADS-B
Wed 05:33:27 51.6977 -3.0939 97° East 541 623 33,000  Level FlightAware ADS-B
Wed 05:33:58 51.6884 -2.9718 97° East 539 620 33,000 -1,731 Level FlightAware ADS-B
Wed 05:34:19 51.6767 -2.8299 97° East 490 564 31,500  Descending FlightAware UK
Wed 05:34:34 51.6772 -2.8284 97° East 538 619 33,000  Climbing FlightAware ADS-B
Wed 05:34:49 51.6672 -2.7102 97° East 490 564 31,500  Descending FlightAware UK
Wed 05:35:06 51.6671 -2.7018 97° East 538 619 33,000 1,915 Climbing FlightAware ADS-B
Wed 05:35:36 51.6575 -2.5803 97° East 537 618 33,000  Level FlightAware ADS-B
Wed 05:36:09 51.6469 -2.4507 97° East 538 619 33,000  Level FlightAware ADS-B
Wed 05:36:41 51.6364 -2.3234 98° East 539 620 33,000 -1,731 Level FlightAware ADS-B
Wed 05:37:01 51.6241 -2.1878 98° East 488 562 31,500  Descending FlightAware UK
Wed 05:37:13 51.6259 -2.1974 98° East 539 620 33,000  Climbing FlightAware ADS-B
Wed 05:37:38 51.6117 -2.0447 98° East 488 562 31,500  Descending FlightAware UK
Wed 05:37:43 51.6158 -2.0774 98° East 539 620 33,000 2,500 Climbing FlightAware ADS-B
Wed 05:38:14 51.6055 -1.9569 98° East 539 620 33,000 -1,837 Level FlightAware ADS-B
Wed 05:38:32 51.5931 -1.8310 98° East 490 564 31,500  Descending FlightAware UK
Wed 05:38:46 51.5945 -1.8304 98° East 539 620 33,000 200 Climbing FlightAware ADS-B
Wed 05:39:02 51.5825 -1.7115 98° East 492 566 31,600 968 Descending FlightAware UK
Wed 05:39:17 51.5835 -1.7046 98° East 543 625 33,500 1,333 Climbing FlightAware ADS-B
Wed 05:39:38 51.5697 -1.5684 98° East 488 562 32,400 1,355 Descending FlightAware UK
Wed 05:39:48 51.5723 -1.5802 98° East 544 626 34,200 1,200 Climbing FlightAware ADS-B
Wed 05:40:08 51.5586 -1.4478 98° East 490 564 33,000 1,125 Descending FlightAware UK
Wed 05:40:20 51.5608 -1.4528 98° East 543 625 34,800 2,791 Climbing FlightAware ADS-B
Wed 05:40:51 51.5498 -1.3311 98° East 544 626 35,000 190 Climbing FlightAware ADS-B
Wed 05:41:23 51.5381 -1.2043 98° East 543 625 35,000 -1,698 Level FlightAware ADS-B
Wed 05:41:44 51.5228 -1.0652 98° East 490 564 33,500  Descending FlightAware UK
Wed 05:41:55 51.5258 -1.0769 98° East 543 625 35,000 2,143 Climbing FlightAware ADS-B
Wed 05:42:26 51.5136 -0.9544 99° East 543 625 35,000 -1,837 Level FlightAware ADS-B
Wed 05:42:44 51.4990 -0.8270 99° East 488 562 33,500  Descending FlightAware UK
Wed 05:42:57 51.5011 -0.8289 99° East 542 624 35,000  Climbing FlightAware ADS-B
Wed 05:43:15 51.4868 -0.7076 99° East 488 562 33,500  Descending FlightAware UK
Wed 05:43:28 51.4891 -0.7086 99° East 542 624 35,000 1,875 Climbing FlightAware ADS-B
Wed 05:44:03 51.4748 -0.5679 99° East 542 624 35,000  Level FlightAware ADS-B
Wed 05:44:34 51.4621 -0.4456 99° East 542 624 35,000 -1,667 Level FlightAware ADS-B
Wed 05:44:57 51.4451 -0.3039 99° East 490 564 33,500  Descending FlightAware UK
Wed 05:45:05 51.4496 -0.3245 99° East 542 624 35,000  Climbing FlightAware ADS-B
Wed 05:45:21 51.4351 -0.2092 99° East 488 562 33,500  Descending FlightAware UK
Wed 05:45:35 51.4371 -0.2041 99° East 543 625 35,000  Climbing FlightAware ADS-B
Wed 05:45:51 51.4226 -0.0906 99° East 488 562 33,500  Descending FlightAware UK
Wed 05:46:10 51.4224 -0.0677 99° East 543 625 35,000 1,800 Climbing FlightAware ADS-B
Wed 05:46:41 51.4089 0.0584 100° East 544 626 35,000  Level FlightAware ADS-B
Wed 05:47:15 51.3945 0.1918 100° East 544 626 35,000  Level FlightAware ADS-B
Wed 05:47:47 51.3806 0.3182 100° East 543 625 35,000  Level FlightAware ADS-B
Wed 05:48:18 51.3669 0.4403 100° East 543 625 35,000 -1,957 Level FlightAware ADS-B
Wed 05:48:33 51.3519 0.5513 100° East 490 564 33,500  Descending FlightAware UK
Wed 05:48:52 51.3521 0.5741 100° East 543 625 35,000 1,837 Climbing FlightAware ADS-B
Wed 05:49:22 51.3383 0.6945 100° East 543 625 35,000 -1,915 Level FlightAware ADS-B
Wed 05:49:39 51.3223 0.8108 100° East 490 564 33,500  Descending FlightAware UK
Wed 05:49:55 51.3220 0.8220 100° East 543 625 35,000  Climbing FlightAware ADS-B
Wed 05:50:16 51.3016 0.9516 100° East 490 564 33,500  Descending FlightAware UK
Wed 05:50:27 51.3032 0.9482 100° East 542 624 35,000  Climbing FlightAware ADS-B
Wed 05:50:52 51.2802 1.0923 100° East 490 564 33,500  Descending FlightAware UK
Wed 05:51:12 51.2800 1.1040 100° East 543 625 35,000  Climbing FlightAware ADS-B
Wed 05:51:28 51.2589 1.2321 100° East 492 566 33,500  Descending FlightAware UK
Wed 05:51:37 51.2623 1.2195 100° East 542 624 35,000  Climbing FlightAware ADS-B
Wed 05:51:52 51.2449 1.3253 100° East 492 566 33,500 -2,727 Descending FlightAware UK
Wed 05:52:10 51.2346 1.3953 103° East 492 566 33,500 2,000 Level FlightAware UK
Wed 05:52:37 51.2290 1.4400 103° East 542 624 35,000  Climbing FlightAware ADS-B
Wed 05:53:04 51.2028 1.6054 103° East 490 564 33,500  Descending FlightAware UK
Wed 05:53:17 51.2070 1.5900 103° East 541 623 35,000  Climbing FlightAware ADS-B
Wed 05:53:34 51.1853 1.7224 103° East 490 564 33,500  Descending FlightAware UK
Wed 05:54:02 51.1810 1.7610 103° East 542 624 35,000  Climbing FlightAware ADS-B
Wed 05:54:28 51.1532 1.9312 103° East 490 564 33,500  Descending FlightAware UK
Wed 05:54:37 51.1590 1.9030 103° East 541 623 35,000  Climbing FlightAware ADS-B
Wed 05:54:52 51.1389 2.0239 103° East 490 564 33,500 -2,000 Descending FlightAware UK
Wed 05:55:22 51.1208 2.1396 104° East 490 564 33,500 3,000 Level FlightAware UK
Wed 05:55:22 51.1320 2.0800 104° East 541 623 35,000  Climbing FlightAware ADS-B
Wed 05:55:46 51.1064 2.2330 104° East 490 564 33,500  Descending FlightAware UK
Wed 05:56:02 51.1070 2.2380 104° East 540 621 35,000  Climbing FlightAware ADS-B
Wed 05:56:04 51.0956 2.3015 104° East 492 566 33,500 -4,500 Descending FlightAware UK
Wed 05:56:22 51.0843 2.3715 104° East 490 564 33,500  Level FlightAware UK
Wed 05:56:40 51.0733 2.4407 104° East 490 564 33,500 4,500 Level FlightAware UK
Wed 05:56:42 51.0830 2.3920 104° East 540 621 35,000  Climbing FlightAware ADS-B
Wed 05:57:04 51.0584 2.5327 104° East 492 566 33,500 -2,250 Descending FlightAware UK
Wed 05:57:22 51.0474 2.6017 104° East 492 566 33,500  Level FlightAware UK
Wed 05:57:40 51.0363 2.6705 104° East 492 566 33,500 4,500 Level FlightAware UK
Wed 05:57:42 51.0460 2.6190 104° East 538 619 35,000  Climbing FlightAware ADS-B
Wed 05:58:04 51.0213 2.7623 104° East 492 566 33,500 -2,195 Descending FlightAware UK
Wed 05:58:23 51.0100 2.8319 105° East 492 566 33,500 3,913 Level FlightAware UK
Wed 05:58:27 51.0190 2.7910 105° East 536 617 35,000  Climbing FlightAware ADS-B
Wed 05:58:53 50.9913 2.9463 105° East 492 566 33,500  Descending FlightAware UK
Wed 05:59:07 50.9940 2.9410 105° East 536 617 35,000  Climbing FlightAware ADS-B
Wed 05:59:35 50.9652 3.1057 105° East 490 564 33,500  Descending FlightAware UK
Wed 05:59:52 50.9650 3.1150 105° East 534 615 35,000  Climbing FlightAware ADS-B
Wed 06:00:17 50.9382 3.2649 105° East 488 562 33,500  Descending FlightAware UK
Wed 06:00:27 50.9450 3.2400 105° East 533 613 35,000  Climbing FlightAware ADS-B
Wed 06:00:47 50.9192 3.3779 105° East 488 562 33,500 -2,368 Descending FlightAware UK
Wed 06:01:05 50.9077 3.4457 105° East 488 562 33,500 3,600 Level FlightAware UK
Wed 06:01:12 50.9180 3.4010 105° East 533 613 35,000  Climbing FlightAware ADS-B
Wed 06:01:29 50.8923 3.5359 105° East 488 562 33,500  Descending FlightAware UK
Wed 06:01:52 50.8890 3.5690 105° East 533 613 35,000  Climbing FlightAware ADS-B
Wed 06:02:23 50.8576 3.7390 105° East 488 562 33,500  Descending FlightAware UK
Wed 06:02:37 50.8600 3.7380 105° East 531 611 35,000 1,667 Climbing FlightAware ADS-B
Wed 06:03:17 50.8280 3.8790 110° East 531 611 35,000  Level FlightAware ADS-B
Wed 06:04:02 50.7720 4.0230 122° Southeast 531 611 35,000 -1,071 Level FlightAware ADS-B
Wed 06:04:41 50.7058 4.2128 122° Southeast 490 564 33,500  Descending FlightAware UK
Wed 06:04:42 50.7190 4.1630 122° Southeast 530 610 35,000  Climbing FlightAware ADS-B
Wed 06:05:05 50.6764 4.2941 122° Southeast 488 562 33,500  Descending FlightAware UK
Wed 06:05:22 50.6750 4.2840 121° Southeast 528 608 35,000  Climbing FlightAware ADS-B
Wed 06:05:23 50.6540 4.3539 121° Southeast 1 1 33,500 -4,737 Descending FlightAware UK
Wed 06:05:41 50.6321 4.4139 121° Southeast 488 562 33,500 2,045 Level FlightAware UK
Wed 06:06:07 50.6180 4.4440 121° Southeast 529 609 35,000 1,364 Climbing FlightAware ADS-B
Wed 06:06:47 50.5670 4.5780 121° Southeast 527 606 35,000  Level FlightAware ADS-B
Wed 06:07:32 50.5140 4.7150 121° Southeast 526 605 35,000  Level FlightAware ADS-B
Wed 06:08:17 50.4550 4.8690 121° Southeast 524 603 35,000  Level FlightAware ADS-B
Wed 06:08:57 50.4060 4.9960 121° Southeast 523 602 35,000  Level FlightAware ADS-B
Wed 06:11:00 50.2659 5.3989 118° Southeast  Level Estimated
Wed 06:12:00 50.1970 5.5945 119° Southeast  Level Estimated
Wed 06:12:17 50.1590 5.6270 119° Southeast 518 596 35,000  Level FlightAware ADS-B
Wed 06:12:57 50.1000 5.7740 122° Southeast 517 595 35,000  Level FlightAware ADS-B
Wed 06:13:32 50.0580 5.8800 122° Southeast 516 594 35,000  Level FlightAware ADS-B
Wed 06:14:22 49.9960 6.0340 122° Southeast 516 594 35,000  Level FlightAware ADS-B
Wed 06:15:02 49.9430 6.1650 122° Southeast 516 594 35,000  Level FlightAware ADS-B
Wed 06:15:42 49.8970 6.2790 122° Southeast 516 594 35,000  Level FlightAware ADS-B
Wed 06:16:27 49.8360 6.4270 123° Southeast 515 593 35,000  Level FlightAware ADS-B
Wed 06:17:07 49.7860 6.5480 123° Southeast 515 593 35,000  Level FlightAware ADS-B
Wed 06:17:52 49.7270 6.6930 122° Southeast 514 592 35,000  Level FlightAware ADS-B
Wed 06:18:27 49.6840 6.7950 123° Southeast 514 592 35,000  Level FlightAware ADS-B
Wed 06:19:17 49.6190 6.9510 123° Southeast 513 590 35,000  Level FlightAware ADS-B
Wed 06:19:57 49.5670 7.0760 123° Southeast 509 586 35,000  Level FlightAware ADS-B
Wed 06:20:37 49.5170 7.1960 123° Southeast 509 586 35,000  Level FlightAware ADS-B
Wed 06:21:22 49.4580 7.3350 123° Southeast 508 585 35,000  Level FlightAware ADS-B
Wed 06:22:02 49.4070 7.4550 123° Southeast 508 585 35,000  Level FlightAware ADS-B
Wed 06:22:37 49.3590 7.5670 123° Southeast 508 585 35,000  Level FlightAware ADS-B
Wed 06:23:27 49.2950 7.7160 123° Southeast 507 583 35,000  Level FlightAware ADS-B
Wed 06:24:07 49.2460 7.8320 123° Southeast 507 583 35,000  Level FlightAware ADS-B
Wed 06:24:52 49.1860 7.9690 124° Southeast 507 583 35,000  Level FlightAware ADS-B
Wed 06:25:32 49.1330 8.0920 123° Southeast 507 583 35,000  Level FlightAware ADS-B
Wed 06:26:12 49.0850 8.2010 124° Southeast 507 583 35,000  Level FlightAware ADS-B
Wed 06:26:52 49.0300 8.3270 124° Southeast 506 582 35,000  Level FlightAware ADS-B
Wed 06:27:37 48.9590 8.4520 131° Southeast 507 583 35,000  Level FlightAware ADS-B
Wed 06:28:17 48.8910 8.5510 136° Southeast 507 583 35,000  Level FlightAware ADS-B
Wed 06:29:02 48.8090 8.6650 138° Southeast 507 583 35,000  Level FlightAware ADS-B
Wed 06:29:47 48.7330 8.7720 137° Southeast 511 588 35,000  Level FlightAware ADS-B
Wed 06:30:17 48.6810 8.8450 137° Southeast 511 588 35,000  Level FlightAware ADS-B
Wed 06:31:07 48.5920 8.9690 137° Southeast 510 587 35,000  Level FlightAware ADS-B
Wed 06:31:52 48.5160 9.0760 137° Southeast 510 587 35,000  Level FlightAware ADS-B
Wed 06:32:32 48.4460 9.1740 137° Southeast 504 580 35,000  Level FlightAware ADS-B
Wed 06:33:12 48.3760 9.2700 138° Southeast 505 581 35,000  Level FlightAware ADS-B
Wed 06:33:52 48.3060 9.3660 138° Southeast 505 581 35,000  Level FlightAware ADS-B
Wed 06:34:37 48.2270 9.4720 138° Southeast 511 588 35,000  Level FlightAware ADS-B
Wed 06:35:22 48.1470 9.5750 139° Southeast 511 588 35,000  Level FlightAware ADS-B
Wed 06:36:02 48.0780 9.6630 140° Southeast 509 586 35,000  Level FlightAware ADS-B
Wed 06:36:47 47.9980 9.7660 139° Southeast 509 586 35,000  Level FlightAware ADS-B
Wed 06:37:27 47.9270 9.8580 139° Southeast 508 585 35,000  Level FlightAware ADS-B
Wed 06:38:07 47.8550 9.9470 140° Southeast 501 577 35,000  Level FlightAware ADS-B
Wed 06:38:52 47.7690 10.0450 143° Southeast 507 583 35,000  Level FlightAware ADS-B
Wed 06:39:32 47.6930 10.1290 143° Southeast 507 583 35,000  Level FlightAware ADS-B
Wed 06:40:07 47.6310 10.1980 143° Southeast 501 577 35,000  Level FlightAware ADS-B
Wed 06:40:57 47.5330 10.3060 143° Southeast 501 577 35,000  Level FlightAware ADS-B
Wed 06:41:37 47.4640 10.3820 143° Southeast 500 575 35,000  Level FlightAware ADS-B
Wed 06:42:22 47.3730 10.4670 148° Southeast 502 578 35,000  Level FlightAware ADS-B
Wed 06:43:02 47.2910 10.5330 151° Southeast 508 585 35,000  Level FlightAware ADS-B
Wed 06:43:42 47.2060 10.5980 153° Southeast 500 575 35,000  Level FlightAware ADS-B
Wed 06:44:27 47.1040 10.6590 158° South 501 577 35,000  Level FlightAware ADS-B
Wed 06:45:02 47.0250 10.7030 159° South 499 574 35,000  Level FlightAware ADS-B
Wed 06:46:22 46.8640 10.8110 155° Southeast 501 577 35,000  Level FlightAware ADS-B
Wed 06:47:17 46.7620 10.9000 149° Southeast 492 566 35,000  Level FlightAware ADS-B
Wed 06:47:47 46.7000 10.9560 148° Southeast 493 567 35,000  Level FlightAware ADS-B
Wed 06:48:37 46.5970 11.0450 149° Southeast 492 566 35,000  Level FlightAware ADS-B
Wed 06:49:17 46.5170 11.1140 149° Southeast 491 565 35,000  Level FlightAware ADS-B
Wed 06:50:02 46.4230 11.1950 149° Southeast 489 563 35,000  Level FlightAware ADS-B
Wed 06:50:42 46.3470 11.2600 149° Southeast 488 562 35,000  Level FlightAware ADS-B
Wed 06:51:27 46.2580 11.3360 149° Southeast 486 559 35,000  Level FlightAware ADS-B
Wed 06:52:07 46.1790 11.4030 150° Southeast 485 558 35,000  Level FlightAware ADS-B
Wed 06:52:52 46.0930 11.4760 150° Southeast 484 557 35,000  Level FlightAware ADS-B
Wed 06:53:32 46.0120 11.5450 149° Southeast 490 564 35,000  Level FlightAware ADS-B
Wed 06:54:12 45.9390 11.6060 150° Southeast 489 563 35,000  Level FlightAware ADS-B
Wed 06:54:57 45.8460 11.6840 150° Southeast 489 563 35,000  Level FlightAware ADS-B
Wed 06:55:42 45.7590 11.7580 149° Southeast 486 559 35,000  Level FlightAware ADS-B
Wed 06:56:22 45.6820 11.8210 150° Southeast 485 558 35,000  Level FlightAware ADS-B
Wed 06:57:02 45.6040 11.8870 149° Southeast 477 549 35,000 282 Level FlightAware ADS-B
Wed 06:57:47 45.5330 11.9860 136° Southeast 476 548 35,400 918 Climbing FlightAware ADS-B
Wed 06:58:27 45.4950 12.0950 116° Southeast 468 539 36,300 1,125 Climbing FlightAware ADS-B
Wed 06:59:07 45.4600 12.2090 114° Southeast 470 541 36,900 494 Climbing FlightAware ADS-B
Wed 06:59:52 45.4210 12.3330 114° Southeast 476 548 37,000 71 Climbing FlightAware ADS-B
Wed 07:00:32 45.3850 12.4480 114° Southeast 475 547 37,000  Level FlightAware ADS-B
Wed 07:01:17 45.3430 12.5780 115° Southeast 474 545 37,000  Level FlightAware ADS-B
Wed 07:01:47 45.3150 12.6670 114° Southeast 473 544 37,000  Level FlightAware ADS-B
Wed 07:02:32 45.2740 12.7960 114° Southeast 473 544 37,000  Level FlightAware ADS-B
Wed 07:03:12 45.2370 12.9080 115° Southeast 475 547 37,000  Level FlightAware ADS-B
Wed 07:03:57 45.1960 13.0360 114° Southeast 473 544 37,000  Level FlightAware ADS-B
Wed 07:04:37 45.1590 13.1480 115° Southeast 474 545 37,000  Level FlightAware ADS-B
Wed 07:05:22 45.1040 13.2630 124° Southeast 480 552 37,000  Level FlightAware ADS-B
Wed 07:06:02 45.0540 13.3650 125° Southeast 476 548 37,000  Level FlightAware ADS-B
Wed 07:06:42 45.0030 13.4730 124° Southeast 477 549 37,000  Level FlightAware ADS-B
Wed 07:07:22 44.9590 13.5690 123° Southeast 478 550 37,000  Level FlightAware ADS-B
Wed 07:08:07 44.9010 13.6950 123° Southeast 479 551 37,000  Level FlightAware ADS-B
Wed 07:08:52 44.8470 13.8120 123° Southeast 479 551 37,000  Level FlightAware ADS-B
Wed 07:09:32 44.7920 13.9250 124° Southeast 484 557 37,000  Level FlightAware ADS-B
Wed 07:10:22 44.7310 14.0490 125° Southeast 484 557 37,000  Level FlightAware ADS-B
Wed 07:11:12 44.6740 14.1650 125° Southeast 483 556 37,000  Level FlightAware ADS-B
Wed 07:11:52 44.6220 14.2700 125° Southeast 483 556 37,000  Level FlightAware ADS-B
Wed 07:12:32 44.5670 14.3820 125° Southeast 481 554 37,000  Level FlightAware ADS-B
Wed 07:13:17 44.5060 14.5060 125° Southeast 482 555 37,000  Level FlightAware ADS-B
Wed 07:13:57 44.4580 14.6020 125° Southeast 481 554 37,000  Level FlightAware ADS-B
Wed 07:14:32 44.4140 14.6880 126° Southeast 480 552 37,000  Level FlightAware ADS-B
Wed 07:15:22 44.3470 14.8220 125° Southeast 478 550 37,000  Level FlightAware ADS-B
Wed 07:16:07 44.2920 14.9320 125° Southeast 477 549 37,000  Level FlightAware ADS-B
Wed 07:16:47 44.2400 15.0340 125° Southeast 476 548 37,000  Level FlightAware ADS-B
Wed 07:17:22 44.1940 15.1250 125° Southeast 475 547 37,000  Level FlightAware ADS-B
Wed 07:18:12 44.1310 15.2480 125° Southeast 472 543 37,000  Level FlightAware ADS-B
Wed 07:18:52 44.0800 15.3480 125° Southeast 472 543 37,000  Level FlightAware ADS-B
Wed 07:19:37 44.0230 15.4590 126° Southeast 472 543 37,000  Level FlightAware ADS-B
Wed 07:20:17 43.9750 15.5530 125° Southeast 473 544 37,000  Level FlightAware ADS-B
Wed 07:21:02 43.9190 15.6610 126° Southeast 474 545 37,000  Level FlightAware ADS-B
Wed 07:21:42 43.8640 15.7680 125° Southeast 475 547 37,000  Level FlightAware ADS-B
Wed 07:22:22 43.8140 15.8660 125° Southeast 475 547 37,000  Level FlightAware ADS-B
Wed 07:22:57 43.7700 15.9540 125° Southeast 475 547 37,000  Level FlightAware ADS-B
Wed 07:23:32 43.7260 16.0390 126° Southeast 475 547 37,000  Level FlightAware ADS-B
Wed 07:24:17 43.6680 16.1520 125° Southeast 475 547 37,000  Level FlightAware ADS-B
Wed 07:24:57 43.6160 16.2510 126° Southeast 475 547 37,000  Level FlightAware ADS-B
Wed 07:25:37 43.5660 16.3490 125° Southeast 475 547 37,000  Level FlightAware ADS-B
Wed 07:26:22 43.5090 16.4590 126° Southeast 475 547 37,000  Level FlightAware ADS-B
Wed 07:27:02 43.4570 16.5580 126° Southeast 475 547 37,000  Level FlightAware ADS-B
Wed 07:27:42 43.4070 16.6540 126° Southeast 476 548 37,000  Level FlightAware ADS-B
Wed 07:28:27 43.3490 16.7640 126° Southeast 473 544 37,000  Level FlightAware ADS-B
Wed 07:29:02 43.3040 16.8500 126° Southeast 473 544 37,000  Level FlightAware ADS-B
Wed 07:29:47 43.2430 16.9650 126° Southeast 474 545 37,000  Level FlightAware ADS-B
Wed 07:30:32 43.1850 17.0750 126° Southeast 475 547 37,000  Level FlightAware ADS-B
Wed 07:31:12 43.1330 17.1730 126° Southeast 475 547 37,000  Level FlightAware ADS-B
Wed 07:31:57 43.0760 17.2790 126° Southeast 475 547 37,000  Level FlightAware ADS-B
Wed 07:32:37 43.0210 17.3820 126° Southeast 475 547 37,000  Level FlightAware ADS-B
Wed 07:33:17 42.9710 17.4760 126° Southeast 476 548 37,000  Level FlightAware ADS-B
Wed 07:33:57 42.9170 17.5750 127° Southeast 476 548 37,000  Level FlightAware ADS-B
Wed 07:34:37 42.8660 17.6710 126° Southeast 478 550 37,000  Level FlightAware ADS-B
Wed 07:35:27 42.7970 17.7970 127° Southeast 484 557 37,000  Level FlightAware ADS-B
Wed 07:36:02 42.7510 17.8820 126° Southeast 486 559 37,000  Level FlightAware ADS-B
Wed 07:36:52 42.6840 18.0050 127° Southeast 486 559 37,000  Level FlightAware ADS-B
Wed 07:37:32 42.6300 18.1030 127° Southeast 488 562 37,000  Level FlightAware ADS-B
Wed 07:38:17 42.5690 18.2150 126° Southeast 489 563 37,000  Level FlightAware ADS-B
Wed 07:38:57 42.5150 18.3130 127° Southeast 490 564 37,000  Level FlightAware ADS-B
Wed 07:39:37 42.4570 18.4110 129° Southeast 492 566 37,000  Level FlightAware ADS-B
Wed 07:40:07 42.4080 18.4640 141° Southeast 495 570 37,000  Level FlightAware ADS-B
Wed 07:40:47 42.3180 18.5110 159° South 497 572 37,000  Level FlightAware ADS-B
Wed 07:41:27 42.2470 18.5830 143° Southeast 498 573 37,000  Level FlightAware ADS-B
Wed 07:42:07 42.1850 18.6810 130° Southeast 500 575 37,000  Level FlightAware ADS-B
Wed 07:42:57 42.1130 18.8000 129° Southeast 500 575 37,000  Level FlightAware ADS-B
Wed 07:43:37 42.0530 18.8980 129° Southeast 501 577 37,000  Level FlightAware ADS-B
Wed 07:44:17 41.9930 18.9920 131° Southeast 502 578 37,000  Level FlightAware ADS-B
Wed 07:45:02 41.9260 19.0970 131° Southeast 502 578 37,000  Level FlightAware ADS-B
Wed 07:45:42 41.8650 19.1920 131° Southeast 503 579 37,000  Level FlightAware ADS-B
Wed 07:46:27 41.7930 19.2970 133° Southeast 504 580 37,000  Level FlightAware ADS-B
Wed 07:47:07 41.7230 19.3790 139° Southeast 505 581 37,000  Level FlightAware ADS-B
Wed 07:47:47 41.6510 19.4600 140° Southeast 505 581 37,000  Level FlightAware ADS-B
Wed 07:48:32 41.5740 19.5470 140° Southeast 506 582 37,000  Level FlightAware ADS-B
Wed 07:49:12 41.5010 19.6290 140° Southeast 506 582 37,000  Level FlightAware ADS-B
Wed 07:49:57 41.4250 19.7180 139° Southeast 508 585 37,000  Level FlightAware ADS-B
Wed 07:50:32 41.3650 19.7990 135° Southeast 509 586 37,000  Level FlightAware ADS-B
Wed 07:51:17 41.2890 19.9030 134° Southeast 509 586 37,000  Level FlightAware ADS-B
Wed 07:52:02 41.2140 20.0040 135° Southeast 510 587 37,000 353 Level FlightAware ADS-B
Wed 07:52:42 41.1510 20.0890 135° Southeast 506 582 37,500 706 Climbing FlightAware ADS-B
Wed 07:53:27 41.0720 20.1950 135° Southeast 511 588 38,000 353 Climbing FlightAware ADS-B
Wed 07:54:07 41.0060 20.2830 135° Southeast 509 586 38,000  Level FlightAware ADS-B
Wed 07:54:47 40.9390 20.3710 135° Southeast 509 586 38,000  Level FlightAware ADS-B
Wed 07:55:32 40.8660 20.4680 135° Southeast 509 586 38,000  Level FlightAware ADS-B
Wed 07:56:12 40.8000 20.5550 135° Southeast 510 587 38,000  Level FlightAware ADS-B
Wed 07:57:02 40.7170 20.6640 135° Southeast 511 588 38,000  Level FlightAware ADS-B
Wed 07:57:57 40.6230 20.7870 135° Southeast 506 582 38,000  Level FlightAware ADS-B
Wed 07:58:42 40.5510 20.8810 135° Southeast 507 583 38,000  Level FlightAware ADS-B
Wed 07:59:22 40.4790 20.9690 137° Southeast 507 583 38,000  Level FlightAware ADS-B
Wed 08:00:02 40.4110 21.0570 135° Southeast 515 593 38,000  Level FlightAware ADS-B
Wed 08:00:47 40.3390 21.1600 133° Southeast 512 589 38,000  Level FlightAware ADS-B
Wed 08:01:27 40.2740 21.2550 132° Southeast 512 589 38,000  Level FlightAware ADS-B
Wed 08:02:12 40.2020 21.3610 132° Southeast 514 592 38,000  Level FlightAware ADS-B
Wed 08:02:52 40.1380 21.4560 131° Southeast 520 598 38,000  Level FlightAware ADS-B
Wed 08:03:32 40.0780 21.5540 129° Southeast 522 601 38,000  Level FlightAware ADS-B
Wed 08:04:17 40.0120 21.6670 127° Southeast 518 596 38,000  Level FlightAware ADS-B
Wed 08:04:57 39.9540 21.7680 127° Southeast 519 597 38,000  Level FlightAware ADS-B
Wed 08:05:37 39.8960 21.8700 127° Southeast 520 598 38,000  Level FlightAware ADS-B
Wed 08:06:22 39.8320 21.9820 127° Southeast 520 598 38,000  Level FlightAware ADS-B
Wed 08:07:02 39.7770 22.0780 127° Southeast 521 600 38,000  Level FlightAware ADS-B
Wed 08:07:42 39.7140 22.1870 127° Southeast 521 600 38,000  Level FlightAware ADS-B
Wed 08:08:27 39.6490 22.3000 127° Southeast 521 600 38,000  Level FlightAware ADS-B
Wed 08:09:07 39.5900 22.4010 127° Southeast 520 598 38,000  Level FlightAware ADS-B
Wed 08:09:52 39.5240 22.5140 127° Southeast 522 601 38,000  Level FlightAware ADS-B
Wed 08:10:32 39.4650 22.6140 127° Southeast 527 606 38,000  Level FlightAware ADS-B
Wed 08:11:17 39.3990 22.7270 127° Southeast 528 608 38,000  Level FlightAware ADS-B
Wed 08:11:57 39.3400 22.8270 127° Southeast 529 609 38,000  Level FlightAware ADS-B
Wed 08:12:42 39.2770 22.9340 127° Southeast 529 609 38,000  Level FlightAware ADS-B
Wed 08:13:22 39.2130 23.0400 128° Southeast 529 609 38,000  Level FlightAware ADS-B
Wed 08:14:07 39.1460 23.1530 127° Southeast 529 609 38,000  Level FlightAware ADS-B
Wed 08:14:47 39.0870 23.2520 127° Southeast 529 609 38,000  Level FlightAware ADS-B
Wed 08:15:42 39.0040 23.3900 128° Southeast 528 608 38,000  Level FlightAware ADS-B
Wed 08:16:22 38.9470 23.4840 128° Southeast 528 608 38,000  Level FlightAware ADS-B
Wed 08:17:07 38.8960 23.5710 127° Southeast 528 608 38,000  Level FlightAware ADS-B
Wed 08:17:42 38.8460 23.6560 127° Southeast 528 608 38,000  Level FlightAware ADS-B
Wed 08:18:37 38.7460 23.8150 129° Southeast 530 610 38,000  Level FlightAware ADS-B
Wed 08:19:27 38.6810 23.9210 128° Southeast 530 610 38,000  Level FlightAware ADS-B
Wed 08:20:07 38.6300 24.0050 128° Southeast 530 610 38,000  Level FlightAware ADS-B
Wed 08:20:47 38.5550 24.1260 128° Southeast 528 608 38,000  Level FlightAware ADS-B
Wed 08:21:32 38.4940 24.2300 127° Southeast 528 608 38,000  Level FlightAware ADS-B
Wed 08:22:12 38.4440 24.3150 127° Southeast 528 608 38,000  Level FlightAware ADS-B
Wed 08:22:52 38.3940 24.3990 127° Southeast 528 608 38,000  Level FlightAware ADS-B
Wed 08:23:32 38.3440 24.4840 127° Southeast 528 608 38,000  Level FlightAware ADS-B
Wed 08:24:22 38.2810 24.5890 127° Southeast 528 608 38,000  Level FlightAware ADS-B
Wed 08:25:02 38.2310 24.6740 127° Southeast 528 608 38,000  Level FlightAware ADS-B
Wed 08:25:42 38.0960 24.8640 132° Southeast 538 619 38,000  Level FlightAware ADS-B
Wed 08:26:22 38.0400 24.9540 128° Southeast 538 619 38,000  Level FlightAware ADS-B
Wed 08:27:02 37.9880 25.0390 128° Southeast 538 619 38,000  Level FlightAware ADS-B
Wed 08:27:52 37.9230 25.1450 128° Southeast 538 619 38,000  Level FlightAware ADS-B
Wed 08:28:32 37.8710 25.2290 128° Southeast 538 619 38,000  Level FlightAware ADS-B
Wed 08:29:12 37.8190 25.3130 128° Southeast 538 619 38,000  Level FlightAware ADS-B
Wed 08:29:52 37.7660 25.3980 128° Southeast 538 619 38,000  Level FlightAware ADS-B
Wed 08:30:37 37.6260 25.6030 131° Southeast 544 626 38,000  Level FlightAware ADS-B
Wed 08:31:22 37.5530 25.7160 129° Southeast 543 625 38,000  Level FlightAware ADS-B
Wed 08:32:02 37.4890 25.8160 129° Southeast 544 626 38,000  Level FlightAware ADS-B
Wed 08:32:42 37.4260 25.9140 129° Southeast 544 626 38,000  Level FlightAware ADS-B
Wed 08:33:27 37.3550 26.0230 129° Southeast 544 626 38,000  Level FlightAware ADS-B
Wed 08:34:07 37.2920 26.1190 130° Southeast 545 627 38,000  Level FlightAware ADS-B
Wed 08:34:47 37.2290 26.2160 129° Southeast 545 627 38,000  Level FlightAware ADS-B
Wed 08:35:32 37.1570 26.3260 129° Southeast 545 627 38,000  Level FlightAware ADS-B
Wed 08:36:12 37.0910 26.4260 130° Southeast 547 629 38,000  Level FlightAware ADS-B
Wed 08:36:57 37.0200 26.5350 129° Southeast 547 629 38,000  Level FlightAware ADS-B
Wed 08:37:42 36.9460 26.6450 130° Southeast 549 632 38,000  Level FlightAware ADS-B
Wed 08:38:22 36.8820 26.7420 130° Southeast 549 632 38,000  Level FlightAware ADS-B
Wed 08:39:02 36.8180 26.8390 129° Southeast 548 631 38,000  Level FlightAware ADS-B
Wed 08:39:37 36.7690 26.9140 129° Southeast 548 631 38,000  Level FlightAware ADS-B
Wed 08:40:27 36.7010 27.0180 129° Southeast 548 631 38,000 600 Level FlightAware ADS-B
Wed 08:41:07 36.6170 27.1400 131° Southeast 555 639 38,900 545 Climbing FlightAware ADS-B
Wed 08:42:17 36.4940 27.3210 130° Southeast 555 639 39,000 55 Climbing FlightAware ADS-B
Wed 08:42:57 36.4310 27.4140 130° Southeast 555 639 39,000  Level FlightAware ADS-B
Wed 08:43:57 36.3350 27.5580 130° Southeast 555 639 39,000  Level FlightAware ADS-B
Wed 08:46:00 36.1735 27.8602 123° Southeast  Level Estimated
Wed 08:46:32 36.0700 27.9430 123° Southeast 566 651 39,000  Level FlightAware ADS-B
Wed 08:47:12 36.0040 28.0390 130° Southeast 568 654 39,000  Level FlightAware ADS-B
Wed 08:47:52 35.9340 28.1390 131° Southeast 569 655 39,000  Level FlightAware ADS-B
Wed 08:48:37 35.8570 28.2500 131° Southeast 570 656 39,000  Level FlightAware ADS-B
Wed 08:49:17 35.7870 28.3510 130° Southeast 571 657 39,000  Level FlightAware ADS-B
Wed 08:50:02 35.7110 28.4610 130° Southeast 572 658 39,000  Level FlightAware ADS-B
Wed 08:50:42 35.6410 28.5600 131° Southeast 572 658 39,000  Level FlightAware ADS-B
Wed 08:51:27 35.5620 28.6720 131° Southeast 572 658 39,000  Level FlightAware ADS-B
Wed 08:52:07 35.4920 28.7710 131° Southeast 572 658 39,000  Level FlightAware ADS-B
Wed 08:52:42 35.4340 28.8530 131° Southeast 572 658 39,000  Level FlightAware ADS-B
Wed 08:54:42 35.2330 29.1360 131° Southeast 568 654 39,000  Level FlightAware ADS-B
Wed 08:55:37 35.1460 29.2610 130° Southeast 568 654 39,000  Level FlightAware ADS-B
Wed 08:56:27 35.0500 29.3940 131° Southeast 568 654 39,000  Level FlightAware ADS-B
Wed 08:57:07 34.9930 29.4780 130° Southeast 568 654 39,000  Level FlightAware ADS-B
Wed 08:57:52 34.8970 29.6050 133° Southeast 567 652 39,000  Level FlightAware ADS-B
Wed 08:58:37 34.8180 29.7120 132° Southeast 567 652 39,000  Level FlightAware ADS-B
Wed 08:59:22 34.7400 29.8210 131° Southeast 567 652 39,000  Level FlightAware ADS-B
Wed 09:00:02 34.6750 29.9090 132° Southeast 566 651 39,000  Level FlightAware ADS-B
Wed 09:00:37 34.6210 29.9880 130° Southeast 566 651 39,000  Level FlightAware ADS-B
Wed 09:01:27 34.5400 30.1420 123° Southeast 577 664 39,000  Level FlightAware ADS-B
Wed 09:02:12 34.4800 30.2680 120° Southeast 577 664 39,000  Level FlightAware ADS-B
Wed 09:02:52 34.4280 30.3770 120° Southeast 577 664 39,000  Level FlightAware ADS-B
Wed 09:03:32 34.3730 30.4930 120° Southeast 576 663 39,000  Level FlightAware ADS-B
Wed 09:04:17 34.3140 30.6150 120° Southeast 575 662 39,000  Level FlightAware ADS-B
Wed 09:04:57 34.2590 30.7290 120° Southeast 575 662 39,000  Level FlightAware ADS-B
Wed 09:05:42 34.2000 30.8500 120° Southeast 575 662 39,000  Level FlightAware ADS-B
Wed 09:06:22 34.1450 30.9620 121° Southeast 574 661 39,000  Level FlightAware ADS-B
Wed 09:07:02 34.0900 31.0760 120° Southeast 574 661 39,000  Level FlightAware ADS-B
Wed 09:07:42 34.0360 31.1860 121° Southeast 574 661 39,000 -141 Level FlightAware ADS-B
Wed 09:08:27 33.9740 31.3120 121° Southeast 573 659 38,800 -706 Descending FlightAware ADS-B
Wed 09:09:07 33.9190 31.4240 121° Southeast 574 661 38,000 -1,059 Descending FlightAware ADS-B
Wed 09:09:52 33.8560 31.5510 121° Southeast 578 665 37,300 -988 Descending FlightAware ADS-B
Wed 09:10:32 33.8040 31.6570 121° Southeast 583 671 36,600 -1,059 Descending FlightAware ADS-B
Wed 09:11:17 33.7390 31.7880 121° Southeast 594 684 35,800 -918 Descending FlightAware ADS-B
Wed 09:11:57 33.6810 31.9030 121° Southeast 596 686 35,300 -600 Descending FlightAware ADS-B
Wed 09:12:37 33.6250 32.0140 121° Southeast 593 682 35,000 -212 Descending FlightAware ADS-B
Wed 09:13:22 33.5600 32.1430 121° Southeast 597 687 35,000  Level FlightAware ADS-B
Wed 09:14:02 33.5040 32.2550 121° Southeast 602 693 35,000  Level FlightAware ADS-B
Wed 09:14:47 33.4380 32.3840 121° Southeast 598 688 35,000  Level FlightAware ADS-B
Wed 09:15:27 33.3800 32.4990 121° Southeast 598 688 35,000 -750 Level FlightAware ADS-B
Wed 09:16:07 33.3250 32.6080 121° Southeast 594 684 34,000 -1,909 Descending FlightAware ADS-B
Wed 09:17:17 33.2250 32.8040 121° Southeast 565 650 31,500 -2,073 Descending FlightAware ADS-B
Wed 09:17:57 33.1750 32.9000 122° Southeast 551 634 30,200 -2,175 Descending FlightAware ADS-B
Wed 09:18:37 33.1200 33.0080 121° Southeast 535 616 28,600 -2,188 Descending FlightAware ADS-B
Wed 09:19:22 33.0620 33.1190 122° Southeast 516 594 27,100 -1,560 Descending FlightAware ADS-B
Wed 09:20:17 32.9960 33.2480 121° Southeast 502 578 26,000 -2,460 Descending FlightAware ADS-B
Wed 09:21:02 32.9410 33.3520 122° Southeast 485 558 23,000 -3,200 Descending FlightAware ADS-B
Wed 09:21:47 32.8860 33.4520 123° Southeast 468 539 21,200 -1,425 Descending FlightAware ADS-B
Wed 09:22:22 32.8450 33.5200 126° Southeast 468 539 21,100 -1,650 Descending FlightAware ADS-B
Wed 09:23:07 32.7850 33.6120 128° Southeast 431 496 19,000 -2,267 Descending FlightAware ADS-B
Wed 09:23:52 32.7330 33.6980 126° Southeast 416 479 17,700 -1,694 Descending FlightAware ADS-B
Wed 09:24:32 32.6910 33.7660 126° Southeast 406 467 16,600 -1,765 Descending FlightAware ADS-B
Wed 09:25:17 32.6400 33.8500 126° Southeast 396 456 15,200 -1,835 Descending FlightAware ADS-B
Wed 09:25:57 32.5970 33.9200 126° Southeast 385 443 14,000 -1,694 Descending FlightAware ADS-B
Wed 09:26:42 32.5510 33.9940 126° Southeast 375 432 12,800 -1,624 Descending FlightAware ADS-B
Wed 09:27:22 32.5130 34.0560 126° Southeast 369 425 11,700 -1,800 Descending FlightAware ADS-B
Wed 09:28:02 32.4680 34.1280 127° Southeast 363 418 10,400 -1,200 Descending FlightAware ADS-B
Wed 09:28:47 32.4270 34.1940 126° Southeast 326 375 10,000 -253 Descending FlightAware ADS-B
Wed 09:29:37 32.3860 34.2600 126° Southeast 296 341 10,000 -560 Level FlightAware ADS-B
Wed 09:30:02 32.3660 34.2920 126° Southeast 288 331 9,300 -1,867 Descending FlightAware ADS-B
Wed 09:30:22 32.3500 34.3170 127° Southeast 296 341 8,600 -933 Descending FlightAware ADS-B
Wed 09:30:47 32.3320 34.3470 125° Southeast 296 341 8,600  Level FlightAware ADS-B
Wed 09:31:17 32.3120 34.3810 125° Southeast 296 341 8,600  Level FlightAware ADS-B
Wed 09:31:47 32.2920 34.4150 125° Southeast 296 341 8,600  Level FlightAware ADS-B
Wed 09:32:17 32.2720 34.4490 125° Southeast 296 341 8,600  Level FlightAware ADS-B
Wed 09:34:00 32.1067 34.6612 125° Southeast  Level FlightAware Approximate
Wed 09:35:00 32.0359 34.8069 125° Southeast  Level FlightAware Approximate
Wed 09:36:00 32.0000 34.8667 125° Southeast  Level FlightAware Approximate
Wed 09:37:00 32.0095 34.8769 125° Southeast  Level Estimated
Wed 09:38:00 32.0095 34.8769 125° Southeast  Level Estimated
Wed 09:39:00 32.0095 34.8769 125° Southeast  Level Estimated
Wed 09:40:00 32.0095 34.8769 125° Southeast  Level Estimated
Wed 09:41:00 32.0095 34.8769 125° Southeast  Level Estimated
Wed 09:42:00 32.0095 34.8769 125° Southeast  Level Estimated

Login

Don't have an account? Register now (free) for customized features, flight alerts, and more!